Granite, Iowa
Current Conditions -  °F | °C
As of 8:34 PM on Friday 24 Oct 2014 (Local Time) from KLYV Reporting Station
Clear Clear  
Wind Chill: 55°   Ceiling: Unl
Heat Index: 55°   Visibility: 10mi
Dew Point: 41°   Wind: 0mph
Humidity: 58%   Direction: NA
Pressure: 29.95"   Gusts: NA
Location:  43.4284°N, 96.4487°W
Report Text: KLYV 250134Z AUTO 00000KT 10SM CLR 13/05 A2995 RMK AO2
Loading
Personal Weather Stations






























Interactive Weather Map
Tropical Storm Tracking
New forecast layout! Learn more

10-Day Weather Forecast

Advertisements
Track Severe Weather on mobile